Millington Regional Jetport Airport
KNQA : now visible

Airfield :











YOU CAN JOIN US ON...

 
LOGIN :

Register | Disclaimer

   EN    FR    IT 

 









Legend :    VFR   Marginal VFR   IFR   Intensive IFR   Very Intensive IFR
Visi :
Ceiling :
>= 8 km
>= 3000ft
5 to 8 km
1000 to 3000 ft
1500m to 5 km
500 to 1000 ft
800 to 1500m
200 to 500 ft
< 800m
< 200 ft
Symbols :   Thunderstorms  Fog  Heavy snow  Heavy precipitations  Wind > 20 kt







- Airport Elevation : 320 ft


KNQA - Millington Regional Jetport

CURRENT METAR :
  • 200915Z AUTO 00000KT 10SM CLR 23/22 A3007 RMK A01

EXPIRED METARs :
  • 200855Z AUTO VRB04KT 10SM CLR 23/22 A3007 RMK A01
  • 200835Z AUTO VRB04KT 10SM FEW037 23/22 A3007 RMK A01
  • 200815Z AUTO 00000KT 10SM CLR 23/22 A3007 RMK A01
  • 200755Z AUTO 00000KT 10SM FEW044 23/22 A3006 RMK A01
  • 200735Z AUTO 00000KT 10SM FEW044 23/22 A3006 RMK A01
  • 200715Z AUTO 00000KT 10SM SCT043 24/22 A3007 RMK A01
  • 200655Z AUTO 00000KT 10SM FEW032 BKN039 BKN045 24/22 A3007 RMK A01
  • 200635Z AUTO 00000KT 10SM BKN037 BKN048 24/22 A3006 RMK A01

TAF N/A
No reported NOTAMs for that airfield.



MET'MAP, your aeronautical weather chart ! - Copyright ORBIFLY December 2007 - Disclaimer

ORBIFLY MET'MAP TEAM :

Programming & Development : Alexandra Zaïnal
Concept & Development : Baudouin d'Aumeries
Co-Development & Prog : Marc-Olivier Méhu
Technical & hardware support : Manuel Goepfert

Contact : metmap@orbifly.com




SOURCES & CREDITS :

   NOAA       Earth
Advisory